Terminal Aerodrome Forecast
Issued by NWS Jacksonville, FL

Home | Current Version | Previous Version | Text Only | Print | Product List | Glossary On
Versions: 1 2 3 4 5 6 7 8 9 10 11 12 13 14 15 16 17
000
FTUS42 KJAX 060531
TAFJAX
TAF
KJAX 060531Z 0606/0706 01006KT P6SM VCSH SCT025 SCT050 BKN070
      TEMPO 0606/0610 4SM SHRA BKN020
     FM061000 04007KT P6SM VCSH SCT020 BKN040 OVC200
     FM061500 03015G22KT P6SM VCSH SCT020 BKN040 BKN250
     FM062300 03010KT P6SM SCT030 SCT080 BKN250
     FM070300 36006KT P6SM SCT040 SCT250=

USA.gov is the U.S. government's official web portal to all federal, state and local government web resources and services.